Time;durP1;ratioP1;P1;durP2;ratioP2;P2;SDS_P1;SDS_P2;PMS_P1;PMS_P2;Temp;Humidity;BMP_temperature;BMP_pressure;BME280_temperature;BME280_humidity;BME280_pressure;Samples;Min_cycle;Max_cycle;Signal;HPM_P1;HPM_P2
2022/09/02 00:00:10;;;;;;;3.10;2.50;;;;;;;14.82;45.47;101213.72;680542;29;1246;-89
2022/09/02 00:00:32;;;;;;;3.00;2.60;;;;;;;14.82;45.65;101206.72;675267;29;1269;-89
2022/09/02 00:00:59;;;;;;;2.90;2.53;;;;;;;14.82;45.82;101211.06;672638;29;1122;-89
2022/09/02 00:01:22;;;;;;;3.03;2.40;;;;;;;14.82;45.58;101209.34;680458;29;1241;-89
2022/09/02 00:01:46;;;;;;;2.50;2.30;;;;;;;14.78;45.58;101207.50;680476;29;1209;-89
2022/09/02 00:02:07;;;;;;;4.28;2.60;;;;;;;14.76;45.76;101210.09;680933;29;1583;-89
2022/09/02 00:02:30;;;;;;;4.23;2.70;;;;;;;14.78;45.66;101215.41;677722;29;1268;-89
2022/09/02 00:02:50;;;;;;;3.67;2.53;;;;;;;14.73;45.66;101202.19;685775;28;1587;-89
2022/09/02 00:03:11;;;;;;;2.80;2.50;;;;;;;14.73;45.46;101215.31;684665;28;1347;-89
2022/09/02 00:03:36;;;;;;;2.80;2.60;;;;;;;14.76;45.61;101214.50;680244;28;1461;-89
2022/09/02 00:04:00;;;;;;;3.53;2.60;;;;;;;14.69;45.53;101204.72;683023;28;1585;-89
2022/09/02 00:04:23;;;;;;;3.60;2.65;;;;;;;14.70;45.62;101207.38;679455;29;1206;-89
2022/09/02 00:04:46;;;;;;;3.60;2.70;;;;;;;14.65;45.58;101203.78;675132;29;1249;-89
2022/09/02 00:05:07;;;;;;;2.80;2.58;;;;;;;14.68;45.87;101202.97;679280;29;1270;-89
2022/09/02 00:05:28;;;;;;;3.00;2.70;;;;;;;14.66;46.02;101205.56;680279;29;1321;-89
2022/09/02 00:05:52;;;;;;;3.20;2.75;;;;;;;14.71;46.09;101209.16;672603;29;1225;-89
2022/09/02 00:06:16;;;;;;;2.95;2.67;;;;;;;14.71;45.92;101208.25;684623;28;1584;-89
2022/09/02 00:06:37;;;;;;;2.92;2.53;;;;;;;14.69;45.92;101213.47;685541;28;1971;-89
2022/09/02 00:06:58;;;;;;;2.85;2.55;;;;;;;14.66;45.97;101200.31;676789;29;1551;-89
2022/09/02 00:07:19;;;;;;;3.00;2.50;;;;;;;14.59;45.86;101191.44;683171;29;1192;-89
2022/09/02 00:07:39;;;;;;;2.60;2.35;;;;;;;14.64;45.89;101202.88;685241;28;1225;-89
2022/09/02 00:08:01;;;;;;;2.63;2.30;;;;;;;14.66;45.88;101205.56;675206;29;1630;-89
2022/09/02 00:08:22;;;;;;;2.60;2.40;;;;;;;14.64;45.76;101202.88;680433;29;1256;-89
2022/09/02 00:08:43;;;;;;;3.58;2.60;;;;;;;14.64;45.82;101212.53;682593;28;1308;-89
2022/09/02 00:09:10;;;;;;;4.25;2.75;;;;;;;14.55;46.11;101186.09;677623;29;1680;-89
2022/09/02 00:09:31;;;;;;;4.40;2.65;;;;;;;14.62;46.07;101198.50;682794;29;1212;-89
2022/09/02 00:09:51;;;;;;;3.88;2.70;;;;;;;14.61;45.87;101205.47;680142;29;1835;-89
2022/09/02 00:10:12;;;;;;;3.83;2.60;;;;;;;14.65;46.01;101195.91;682526;29;1327;-89
2022/09/02 00:10:35;;;;;;;4.20;2.60;;;;;;;14.66;46.02;101202.94;677830;29;1200;-89
2022/09/02 00:10:59;;;;;;;3.25;2.40;;;;;;;14.63;46.04;101205.50;680926;28;1576;-89
2022/09/02 00:11:24;;;;;;;2.95;2.40;;;;;;;14.64;46.02;101200.25;677721;29;1362;-88
2022/09/02 00:11:47;;;;;;;3.00;2.50;;;;;;;14.63;45.99;101200.25;677843;29;1095;-89
2022/09/02 00:12:08;;;;;;;2.70;2.50;;;;;;;14.59;45.89;101195.78;683166;29;1244;-89
2022/09/02 00:12:31;;;;;;;2.80;2.60;;;;;;;14.64;46.01;101199.38;680322;29;1355;-89
2022/09/02 00:12:52;;;;;;;2.70;2.50;;;;;;;14.63;46.13;101193.25;680522;29;2131;-89
2022/09/02 00:13:15;;;;;;;2.83;2.53;;;;;;;14.58;46.06;101186.16;683025;29;1258;-89
2022/09/02 00:13:36;;;;;;;2.50;2.30;;;;;;;14.65;45.74;101193.28;677876;29;1272;-89
2022/09/02 00:14:01;;;;;;;2.47;2.28;;;;;;;14.66;45.87;101195.03;675263;29;1214;-89
2022/09/02 00:14:27;;;;;;;2.40;2.20;;;;;;;14.66;46.03;101198.56;680251;29;1404;-89
2022/09/02 00:14:47;;;;;;;2.60;2.40;;;;;;;14.69;45.80;101195.09;682959;29;1408;-89
2022/09/02 00:15:11;;;;;;;2.80;2.60;;;;;;;14.69;45.92;101205.59;677446;29;1735;-89
2022/09/02 00:15:32;;;;;;;2.80;2.60;;;;;;;14.67;45.52;101204.69;680374;29;1275;-89
2022/09/02 00:15:54;;;;;;;2.60;2.40;;;;;;;14.73;45.82;101202.19;678495;29;1780;-89
2022/09/02 00:16:16;;;;;;;2.50;2.30;;;;;;;14.74;45.71;101206.56;677767;29;1108;-89
2022/09/02 00:16:38;;;;;;;3.00;2.67;;;;;;;14.75;45.82;101203.09;685726;28;1248;-89
2022/09/02 00:17:00;;;;;;;3.10;2.80;;;;;;;14.78;45.81;101199.63;685688;28;1394;-89
2022/09/02 00:17:21;;;;;;;2.95;2.65;;;;;;;14.76;45.59;101199.59;682916;28;1256;-89
2022/09/02 00:17:42;;;;;;;2.70;2.50;;;;;;;14.76;45.77;101191.72;680342;29;1303;-89
2022/09/02 00:18:05;;;;;;;2.60;2.40;;;;;;;14.83;45.60;101202.34;673352;29;2080;-89
2022/09/02 00:18:26;;;;;;;2.60;2.40;;;;;;;14.79;45.67;101197.03;683084;29;1303;-89
2022/09/02 00:18:47;;;;;;;2.60;2.40;;;;;;;14.85;45.47;101205.88;680424;29;1201;-89
2022/09/02 00:19:09;;;;;;;3.00;2.70;;;;;;;14.80;45.43;101198.81;677097;29;2119;-87
2022/09/02 00:19:30;;;;;;;3.20;2.80;;;;;;;14.87;45.38;101202.41;682803;28;1401;-89
2022/09/02 00:19:53;;;;;;;3.17;2.65;;;;;;;14.84;45.34;101194.47;682821;28;1591;-89
2022/09/02 00:20:14;;;;;;;4.43;2.63;;;;;;;14.82;45.23;101192.69;682883;29;1407;-89
2022/09/02 00:20:35;;;;;;;4.30;2.60;;;;;;;14.88;45.27;101205.94;679156;29;1455;-89
2022/09/02 00:20:58;;;;;;;6.00;2.63;;;;;;;14.86;45.24;101202.41;677589;29;2077;-89
2022/09/02 00:21:20;;;;;;;4.30;2.50;;;;;;;14.83;45.31;101197.06;677678;29;1448;-89
2022/09/02 00:21:41;;;;;;;2.92;2.40;;;;;;;14.85;45.31;101190.09;682986;29;1255;-89
2022/09/02 00:22:02;;;;;;;3.00;2.40;;;;;;;14.86;45.38;101199.78;685846;28;1753;-89
2022/09/02 00:22:22;;;;;;;2.80;2.40;;;;;;;14.85;45.42;101190.09;674826;29;1338;-89
2022/09/02 00:22:43;;;;;;;4.13;2.40;;;;;;;14.80;45.36;101179.50;680270;29;1187;-89
2022/09/02 00:23:07;;;;;;;2.90;2.15;;;;;;;14.87;45.48;101198.91;672603;29;1615;-89
2022/09/02 00:23:27;;;;;;;3.83;2.28;;;;;;;14.83;45.23;101191.81;682550;28;1218;-89
2022/09/02 00:23:49;;;;;;;3.50;2.40;;;;;;;14.86;45.36;101191.91;688243;28;1214;-89
2022/09/02 00:24:10;;;;;;;3.38;2.53;;;;;;;14.88;45.30;101195.44;682791;28;1189;-89
2022/09/02 00:24:31;;;;;;;2.67;2.47;;;;;;;14.85;45.27;101184.84;680332;29;1201;-89
2022/09/02 00:24:52;;;;;;;2.50;2.30;;;;;;;14.87;45.17;101191.03;677689;29;1240;-89
2022/09/02 00:25:12;;;;;;;2.50;2.30;;;;;;;14.87;45.17;101189.28;680915;29;1304;-89
2022/09/02 00:25:35;;;;;;;2.40;2.20;;;;;;;14.97;45.16;101195.56;682943;28;1343;-89
2022/09/02 00:25:56;;;;;;;2.72;2.40;;;;;;;14.98;45.01;101193.84;678504;29;1888;-89
2022/09/02 00:26:18;;;;;;;3.70;2.50;;;;;;;15.01;45.17;101192.13;677642;29;1242;-89
2022/09/02 00:26:41;;;;;;;3.30;2.45;;;;;;;14.96;45.02;101196.44;680156;29;1966;-89
2022/09/02 00:27:02;;;;;;;3.45;2.53;;;;;;;14.92;45.07;101192.88;677797;29;1346;-89
2022/09/02 00:27:23;;;;;;;2.60;2.40;;;;;;;14.91;44.85;101191.09;677586;29;1269;-88
2022/09/02 00:27:43;;;;;;;3.08;2.45;;;;;;;14.98;45.12;101196.47;677702;29;1251;-89
2022/09/02 00:28:06;;;;;;;3.30;2.50;;;;;;;14.94;44.73;101179.78;677621;29;1405;-90
2022/09/02 00:28:27;;;;;;;4.80;2.60;;;;;;;15.00;44.85;101185.09;682903;29;1358;-89
2022/09/02 00:28:48;;;;;;;4.60;2.40;;;;;;;15.04;44.66;101186.94;682925;29;1175;-89
2022/09/02 00:29:11;;;;;;;4.30;2.40;;;;;;;15.05;44.81;101193.94;680276;29;1620;-89
2022/09/02 00:29:32;;;;;;;2.40;2.20;;;;;;;15.06;44.75;101187.84;677512;29;1295;-89
2022/09/02 00:29:53;;;;;;;2.60;2.40;;;;;;;15.04;44.71;101184.31;680088;29;1237;-89
2022/09/02 00:30:14;;;;;;;2.67;2.47;;;;;;;15.04;44.84;101184.31;674838;29;1281;-88
2022/09/02 00:30:35;;;;;;;2.70;2.50;;;;;;;15.05;44.53;101186.06;683019;28;1340;-89
2022/09/02 00:30:58;;;;;;;2.78;2.58;;;;;;;15.07;44.53;101181.72;680299;29;2025;-89
2022/09/02 00:31:19;;;;;;;2.65;2.45;;;;;;;15.07;44.84;101192.22;680292;28;1217;-89
2022/09/02 00:31:42;;;;;;;2.35;2.15;;;;;;;14.98;44.48;101178.06;680539;29;1422;-90
2022/09/02 00:32:04;;;;;;;3.83;2.20;;;;;;;14.95;44.78;101176.28;675037;29;1249;-89
2022/09/02 00:32:27;;;;;;;3.80;2.20;;;;;;;14.97;44.87;101184.16;675090;29;1438;-89
2022/09/02 00:32:47;;;;;;;3.88;2.30;;;;;;;14.88;44.69;101170.00;685626;28;1382;-90
2022/09/02 00:33:11;;;;;;;2.67;2.35;;;;;;;14.91;45.01;101177.06;675117;29;1303;-89
2022/09/02 00:33:32;;;;;;;3.83;2.50;;;;;;;14.94;44.75;101179.78;672668;29;1267;-88
2022/09/02 00:33:53;;;;;;;4.80;2.40;;;;;;;14.96;44.96;101182.41;677812;29;1455;-89
2022/09/02 00:34:17;;;;;;;4.57;2.50;;;;;;;14.93;44.74;101184.13;679552;29;1741;-89
2022/09/02 00:34:43;;;;;;;3.38;2.88;;;;;;;14.95;44.66;101181.53;686104;28;1418;-89
2022/09/02 00:35:09;;;;;;;5.05;2.88;;;;;;;14.94;44.74;101178.00;685339;28;1927;-89
2022/09/02 00:35:31;;;;;;;5.20;2.40;;;;;;;14.96;44.64;101174.50;685069;28;1679;-89
2022/09/02 00:35:52;;;;;;;4.53;2.28;;;;;;;14.98;44.65;101178.06;680603;29;1601;-89
2022/09/02 00:36:12;;;;;;;2.37;2.10;;;;;;;14.92;44.64;101168.31;680663;29;1213;-89
2022/09/02 00:36:33;;;;;;;2.33;2.10;;;;;;;14.91;44.43;101169.19;683421;29;1203;-88
2022/09/02 00:36:57;;;;;;;2.45;2.10;;;;;;;14.97;44.53;101179.81;679826;29;1867;-89
2022/09/02 00:37:17;;;;;;;3.10;2.00;;;;;;;14.94;44.80;101175.38;680680;29;1317;-89
2022/09/02 00:37:38;;;;;;;2.30;1.90;;;;;;;14.94;44.56;101174.50;680792;29;1259;-89
2022/09/02 00:37:59;;;;;;;2.28;2.10;;;;;;;15.02;44.70;101187.75;680450;29;1789;-89
2022/09/02 00:38:20;;;;;;;2.40;2.20;;;;;;;14.97;44.45;101173.66;680613;29;1239;-89
2022/09/02 00:38:41;;;;;;;2.40;2.20;;;;;;;14.98;44.32;101170.19;688668;28;1250;-89
2022/09/02 00:39:03;;;;;;;2.30;2.10;;;;;;;15.00;44.44;101173.72;675733;29;2015;-89
2022/09/02 00:39:25;;;;;;;2.30;2.10;;;;;;;14.97;44.56;101169.28;675590;29;1323;-89
2022/09/02 00:39:46;;;;;;;2.40;2.20;;;;;;;14.98;44.49;101171.06;683430;28;835;-89
2022/09/02 00:40:08;;;;;;;2.50;2.30;;;;;;;15.00;44.52;101178.97;682368;28;1721;-89
2022/09/02 00:40:30;;;;;;;3.00;2.30;;;;;;;15.04;44.64;101175.53;680606;29;1881;-89
2022/09/02 00:40:50;;;;;;;3.17;2.13;;;;;;;15.02;44.30;101172.88;683213;28;1238;-85
2022/09/02 00:41:12;;;;;;;3.20;2.10;;;;;;;15.01;44.34;101168.47;672269;29;1591;-87
2022/09/02 00:41:34;;;;;;;3.10;2.10;;;;;;;15.00;44.63;101168.47;686583;28;1322;-89
2022/09/02 00:41:55;;;;;;;2.45;2.15;;;;;;;15.03;44.44;101179.00;690776;28;1204;-89
2022/09/02 00:42:16;;;;;;;4.10;2.30;;;;;;;15.02;44.33;101175.53;683251;29;1292;-89
2022/09/02 00:42:37;;;;;;;5.97;2.50;;;;;;;15.03;44.33;101174.66;680390;29;1161;-89
2022/09/02 00:42:58;;;;;;;6.63;2.67;;;;;;;14.98;44.27;101171.06;677864;29;1601;-89
2022/09/02 00:43:42;;;;;;;5.70;2.60;;;;;;;15.04;44.38;101186.03;680343;29;1263;-89
2022/09/02 00:44:10;;;;;;;3.40;2.33;;;;;;;15.03;44.49;101179.91;680481;29;1652;-89
2022/09/02 00:44:32;;;;;;;4.50;2.30;;;;;;;15.01;44.44;101176.34;677746;29;1213;-89
2022/09/02 00:44:53;;;;;;;3.80;2.30;;;;;;;15.04;44.38;101178.16;685638;28;1958;-88
2022/09/02 00:45:14;;;;;;;3.97;2.30;;;;;;;15.03;44.38;101179.91;677847;29;1366;-89
2022/09/02 00:45:36;;;;;;;2.60;2.40;;;;;;;15.05;44.40;101186.06;672778;29;1093;-89
2022/09/02 00:45:57;;;;;;;3.30;2.60;;;;;;;15.02;44.39;101172.88;680863;29;1612;-89
2022/09/02 00:46:23;;;;;;;2.83;2.50;;;;;;;15.04;44.51;101171.16;685472;28;1197;-89
2022/09/02 00:46:44;;;;;;;2.50;2.30;;;;;;;15.03;44.07;101169.41;677769;29;1974;-89
2022/09/02 00:47:05;;;;;;;2.50;2.20;;;;;;;15.05;44.49;101175.56;682944;28;2046;-89
2022/09/02 00:47:26;;;;;;;2.40;2.13;;;;;;;15.06;44.20;101173.81;680386;29;1263;-89
2022/09/02 00:47:50;;;;;;;4.10;2.30;;;;;;;15.03;44.22;101173.75;675198;29;1139;-89
2022/09/02 00:48:11;;;;;;;3.30;2.30;;;;;;;15.04;43.99;101165.00;677259;29;2062;-89
2022/09/02 00:48:37;;;;;;;3.28;2.47;;;;;;;15.10;44.16;101180.88;675251;29;1179;-88
2022/09/02 00:49:16;;;;;;;3.55;2.50;;;;;;;15.14;44.00;101181.81;675149;29;1470;-88
2022/09/02 00:49:44;;;;;;;2.70;2.15;;;;;;;15.08;43.93;101172.97;685350;28;1264;-89
2022/09/02 00:50:08;;;;;;;2.30;2.10;;;;;;;15.07;44.06;101176.47;682758;29;1613;-89
2022/09/02 00:50:33;;;;;;;2.13;2.03;;;;;;;15.06;44.18;101172.06;675020;29;1334;-89
2022/09/02 00:50:53;;;;;;;3.30;2.30;;;;;;;15.07;44.10;101173.81;675304;29;1242;-89
2022/09/02 00:51:17;;;;;;;4.50;2.40;;;;;;;15.07;44.03;101170.34;683070;29;1477;-89
2022/09/02 00:52:00;;;;;;;5.10;2.35;;;;;;;15.07;44.11;101176.47;677588;29;1217;-89
2022/09/02 00:52:29;;;;;;;2.70;2.30;;;;;;;15.06;43.99;101169.44;685612;28;1271;-89
2022/09/02 00:52:57;;;;;;;2.40;2.20;;;;;;;15.07;43.99;101171.19;685700;28;1646;-89
2022/09/02 00:53:21;;;;;;;3.20;2.30;;;;;;;15.08;44.06;101180.84;675237;29;1330;-89
2022/09/02 00:53:45;;;;;;;4.10;2.35;;;;;;;15.13;44.02;101180.91;683233;29;1118;-89
2022/09/02 00:54:10;;;;;;;4.10;2.50;;;;;;;15.15;43.91;101183.59;685052;28;1961;-89
2022/09/02 00:54:35;;;;;;;2.90;2.60;;;;;;;15.12;44.17;101173.03;672660;29;1236;-89
2022/09/02 00:55:01;;;;;;;2.70;2.50;;;;;;;15.15;43.82;101183.59;673614;29;1262;-88
2022/09/02 00:55:26;;;;;;;3.40;2.50;;;;;;;15.11;43.87;101177.38;674985;29;1383;-89
2022/09/02 00:55:49;;;;;;;2.80;2.38;;;;;;;15.11;43.98;101171.25;675257;29;1281;-89
2022/09/02 00:56:16;;;;;;;2.75;2.20;;;;;;;15.13;43.81;101172.16;672622;29;1222;-89
2022/09/02 00:56:39;;;;;;;2.75;2.10;;;;;;;15.15;43.93;101178.31;680194;29;1287;-89
2022/09/02 00:57:02;;;;;;;2.30;2.10;;;;;;;15.13;44.02;101172.16;682743;28;1209;-89
2022/09/02 00:57:32;;;;;;;4.05;2.30;;;;;;;15.17;43.76;101179.22;675258;29;1203;-89
2022/09/02 00:58:06;;;;;;;4.85;2.38;;;;;;;15.20;43.76;101179.28;682918;29;1287;-89
2022/09/02 00:58:32;;;;;;;2.40;2.17;;;;;;;15.17;43.46;101173.97;682716;29;1243;-89
2022/09/02 00:58:54;;;;;;;2.53;2.33;;;;;;;15.15;43.53;101162.56;677932;29;1210;-89
2022/09/02 00:59:53;;;;;;;2.58;2.38;;;;;;;15.14;43.53;101160.78;677731;29;1336;-89
2022/09/02 01:00:24;;;;;;;4.13;2.30;;;;;;;15.18;43.58;101168.75;680660;29;1226;-89
2022/09/02 01:00:45;;;;;;;3.28;2.30;;;;;;;15.12;43.74;101171.28;682849;29;1139;-89
2022/09/02 01:01:09;;;;;;;2.60;2.13;;;;;;;15.11;43.51;101168.63;682940;28;1206;-89
2022/09/02 01:01:30;;;;;;;3.70;2.20;;;;;;;15.12;43.60;101175.66;675338;29;1114;-89
2022/09/02 01:01:51;;;;;;;3.50;2.20;;;;;;;15.10;43.80;101169.50;680319;29;1459;-89
2022/09/02 01:02:14;;;;;;;3.60;2.30;;;;;;;15.12;43.62;101173.91;679874;29;1272;-89
2022/09/02 01:02:39;;;;;;;2.50;2.30;;;;;;;15.10;43.76;101166.88;680389;29;1210;-89
2022/09/02 01:03:05;;;;;;;2.35;2.15;;;;;;;15.15;43.75;101180.94;678188;29;1609;-89
2022/09/02 01:03:29;;;;;;;2.30;2.10;;;;;;;15.07;43.48;101163.31;675188;29;1338;-89
2022/09/02 01:03:50;;;;;;;3.10;2.30;;;;;;;15.11;43.74;101168.63;683160;28;1301;-89
2022/09/02 01:04:11;;;;;;;2.95;2.35;;;;;;;15.11;43.55;101169.50;677511;29;1424;-89
2022/09/02 01:04:32;;;;;;;2.45;2.25;;;;;;;15.15;43.41;101162.56;677242;29;1214;-89
2022/09/02 01:04:55;;;;;;;2.50;2.30;;;;;;;15.15;43.47;101165.19;677935;29;1206;-89
2022/09/02 01:05:20;;;;;;;2.50;2.30;;;;;;;15.14;43.55;101160.78;681822;29;1591;-89
2022/09/02 01:05:44;;;;;;;2.50;2.30;;;;;;;15.19;43.68;101172.28;680578;29;1366;-89
2022/09/02 01:06:05;;;;;;;2.50;2.30;;;;;;;15.12;43.46;101167.78;679457;29;2073;-89
2022/09/02 01:06:31;;;;;;;2.67;2.47;;;;;;;15.19;43.43;101169.63;685688;28;1363;-89
2022/09/02 01:06:52;;;;;;;2.50;2.30;;;;;;;15.12;43.55;101154.63;680674;29;1376;-89
2022/09/02 01:07:14;;;;;;;3.03;2.20;;;;;;;15.17;43.59;101168.72;680813;28;1324;-89
2022/09/02 01:07:37;;;;;;;3.20;2.28;;;;;;;15.08;43.56;101153.69;682895;28;1255;-89
2022/09/02 01:07:58;;;;;;;4.35;2.40;;;;;;;15.17;43.41;101163.44;680399;29;1671;-89
2022/09/02 01:08:24;;;;;;;3.40;2.50;;;;;;;15.11;43.63;101156.34;675159;29;1210;-89
2022/09/02 01:08:53;;;;;;;3.35;2.40;;;;;;;15.16;43.44;101161.69;685621;28;1498;-89
2022/09/02 01:09:15;;;;;;;2.22;2.03;;;;;;;15.17;43.28;101172.22;685124;28;1793;-89
2022/09/02 01:09:36;;;;;;;3.20;2.10;;;;;;;15.17;43.44;101166.97;677512;29;1370;-89
2022/09/02 01:09:58;;;;;;;3.45;2.20;;;;;;;15.22;43.37;101169.72;680065;29;1668;-89
2022/09/02 01:10:34;;;;;;;4.03;2.25;;;;;;;15.20;43.36;101166.16;677675;29;1122;-89
2022/09/02 01:10:56;;;;;;;2.42;2.22;;;;;;;15.19;43.35;101167.00;683211;29;1199;-89
2022/09/02 01:11:18;;;;;;;2.50;2.30;;;;;;;15.20;43.33;101166.16;683024;29;1209;-89
2022/09/02 01:11:46;;;;;;;2.40;2.20;;;;;;;15.10;43.39;101151.97;683024;29;1207;-89
2022/09/02 01:12:07;;;;;;;2.88;2.00;;;;;;;15.17;43.56;101160.81;688073;28;1420;-89
2022/09/02 01:12:31;;;;;;;4.38;2.05;;;;;;;15.20;43.41;101171.41;681805;29;1240;-89
2022/09/02 01:12:56;;;;;;;5.43;2.20;;;;;;;15.15;43.20;101160.81;680475;28;1266;-89
2022/09/02 01:13:24;;;;;;;4.50;2.05;;;;;;;15.22;43.44;101174.97;688188;28;1318;-89
2022/09/02 01:13:44;;;;;;;2.13;1.98;;;;;;;15.20;43.33;101169.63;680336;29;1328;-89
2022/09/02 01:14:06;;;;;;;3.10;2.13;;;;;;;15.20;43.45;101169.63;677695;29;1667;-89
2022/09/02 01:14:33;;;;;;;3.20;2.20;;;;;;;15.18;43.20;101171.38;683182;29;1094;-89
2022/09/02 01:14:56;;;;;;;2.45;2.20;;;;;;;15.14;43.44;101161.69;678285;29;1970;-89
2022/09/02 01:15:17;;;;;;;2.30;2.10;;;;;;;15.16;43.25;101164.31;683153;29;1241;-89
2022/09/02 01:15:43;;;;;;;2.33;2.13;;;;;;;15.23;43.27;101175.84;680314;29;1186;-89
2022/09/02 01:16:16;;;;;;;2.40;2.10;;;;;;;15.17;43.41;101166.97;675139;29;1399;-89
2022/09/02 01:16:46;;;;;;;2.40;2.20;;;;;;;15.20;43.46;101167.00;683101;28;1318;-89
2022/09/02 01:17:08;;;;;;;3.05;2.30;;;;;;;15.19;43.25;101169.63;677254;29;1748;-89
2022/09/02 01:17:33;;;;;;;3.10;2.20;;;;;;;15.20;43.36;101171.41;680452;29;1226;-89
2022/09/02 01:17:54;;;;;;;2.67;2.47;;;;;;;15.14;43.37;101155.53;685998;28;2033;-89
2022/09/02 01:18:23;;;;;;;2.78;2.58;;;;;;;15.21;43.41;101168.84;680560;29;1280;-89
2022/09/02 01:18:49;;;;;;;2.60;2.40;;;;;;;15.20;43.42;101171.41;677994;29;1202;-89
2022/09/02 01:19:19;;;;;;;2.22;2.03;;;;;;;15.17;43.29;101160.81;683072;29;2161;-89
2022/09/02 01:19:47;;;;;;;2.30;2.10;;;;;;;15.23;43.43;101171.47;681053;29;1185;-89
2022/09/02 01:20:11;;;;;;;2.50;2.20;;;;;;;15.23;43.31;101171.47;678538;29;1321;-89
2022/09/02 01:20:33;;;;;;;2.45;2.20;;;;;;;15.22;43.34;101169.72;681221;29;1126;-89
2022/09/02 01:20:55;;;;;;;2.17;2.03;;;;;;;15.19;43.29;101160.00;681169;29;1173;-88
2022/09/02 01:21:17;;;;;;;2.72;2.15;;;;;;;15.21;43.34;101167.94;686664;29;1290;-88
2022/09/02 01:21:38;;;;;;;4.00;2.13;;;;;;;15.20;43.58;101166.16;686413;28;1228;-89
2022/09/02 01:22:01;;;;;;;3.83;2.23;;;;;;;15.20;43.37;101176.66;686482;28;1374;-89
2022/09/02 01:22:26;;;;;;;3.38;2.30;;;;;;;15.20;43.22;101168.78;683692;28;1521;-88
2022/09/02 01:22:48;;;;;;;2.40;2.20;;;;;;;15.24;43.32;101162.72;686505;28;1131;-88
2022/09/02 01:23:20;;;;;;;2.38;2.17;;;;;;;15.25;43.28;101159.25;687447;28;1682;-89
2022/09/02 01:23:40;;;;;;;2.42;2.10;;;;;;;15.27;43.34;101164.50;688498;28;1259;-89
2022/09/02 01:24:01;;;;;;;2.85;2.10;;;;;;;15.29;43.16;101171.56;678995;28;1224;-88
2022/09/02 01:24:29;;;;;;;2.63;2.20;;;;;;;15.30;43.07;101172.47;683489;28;1715;-89
2022/09/02 01:24:51;;;;;;;2.58;2.30;;;;;;;15.26;42.86;101163.66;694443;28;1165;-89
2022/09/02 01:25:21;;;;;;;3.50;2.40;;;;;;;15.25;43.36;101163.63;683817;28;1150;-89
2022/09/02 01:25:43;;;;;;;2.95;2.30;;;;;;;15.23;43.23;101160.94;681106;29;1392;-89
2022/09/02 01:26:04;;;;;;;2.40;2.20;;;;;;;15.20;43.26;101155.63;683279;29;1257;-89
2022/09/02 01:26:25;;;;;;;2.20;2.00;;;;;;;15.19;43.10;101164.38;680041;29;1395;-89
2022/09/02 01:26:50;;;;;;;2.72;2.08;;;;;;;15.19;43.30;101161.75;684009;29;1956;-89
2022/09/02 01:27:16;;;;;;;2.53;2.10;;;;;;;15.14;43.44;101155.53;684249;28;1593;-89
2022/09/02 01:27:37;;;;;;;4.50;2.10;;;;;;;15.18;43.45;101158.22;683898;29;1174;-89
2022/09/02 01:28:04;;;;;;;5.18;2.00;;;;;;;15.21;43.37;101168.84;684641;28;1854;-89
2022/09/02 01:28:26;;;;;;;3.47;2.10;;;;;;;15.19;43.46;101162.63;680925;29;1198;-89
2022/09/02 01:28:47;;;;;;;4.43;2.30;;;;;;;15.17;43.47;101158.19;678319;29;1749;-89
2022/09/02 01:29:08;;;;;;;4.97;2.50;;;;;;;15.22;43.56;101167.06;680966;28;1359;-89
2022/09/02 01:29:29;;;;;;;3.90;2.40;;;;;;;15.14;43.27;101159.06;678857;29;1766;-89
2022/09/02 01:29:54;;;;;;;3.75;2.40;;;;;;;15.21;43.56;101167.94;686358;28;1280;-88
2022/09/02 01:30:22;;;;;;;3.38;2.20;;;;;;;15.07;43.56;101144.91;682856;29;1553;-88
2022/09/02 01:30:48;;;;;;;4.05;2.22;;;;;;;15.15;43.52;101154.66;678085;29;1186;-89
2022/09/02 01:31:12;;;;;;;4.38;2.60;;;;;;;15.16;43.37;101159.97;686673;28;1489;-88
2022/09/02 01:31:33;;;;;;;3.47;2.53;;;;;;;15.20;43.50;101156.50;686968;28;1249;-89
2022/09/02 01:31:55;;;;;;;4.40;2.50;;;;;;;15.18;43.46;101160.84;678343;29;2088;-89
2022/09/02 01:32:15;;;;;;;3.25;2.10;;;;;;;15.23;43.33;101165.34;680548;29;1304;-89
2022/09/02 01:32:36;;;;;;;2.40;2.00;;;;;;;15.23;43.58;101165.34;677863;29;1597;-89
2022/09/02 01:32:58;;;;;;;2.05;1.92;;;;;;;15.18;43.36;101152.09;678144;29;1835;-89
2022/09/02 01:33:21;;;;;;;4.55;2.35;;;;;;;15.16;43.44;101156.44;679759;29;1680;-89
2022/09/02 01:33:42;;;;;;;5.00;2.55;;;;;;;15.16;43.40;101159.06;683055;28;1257;-89
2022/09/02 01:34:05;;;;;;;5.00;2.60;;;;;;;15.18;43.28;101157.34;682884;28;1210;-89
2022/09/02 01:34:25;;;;;;;4.90;2.28;;;;;;;15.19;43.39;101164.38;677753;29;1421;-89
2022/09/02 01:34:47;;;;;;;6.10;2.33;;;;;;;15.24;43.22;101160.09;683121;29;1437;-89
2022/09/02 01:35:08;;;;;;;4.25;2.30;;;;;;;15.23;43.23;101163.59;680584;29;1370;-89
2022/09/02 01:35:31;;;;;;;2.97;2.30;;;;;;;15.23;43.09;101155.69;675065;29;1341;-89
2022/09/02 01:35:52;;;;;;;2.50;2.30;;;;;;;15.26;43.17;101170.63;675271;29;1842;-89
2022/09/02 01:36:13;;;;;;;2.60;2.40;;;;;;;15.22;43.22;101153.94;677810;29;1331;-89
2022/09/02 01:36:37;;;;;;;2.80;2.50;;;;;;;15.29;42.95;101158.41;677753;29;1276;-88
2022/09/02 01:36:58;;;;;;;2.55;2.35;;;;;;;15.28;43.06;101154.03;680480;29;1584;-89
2022/09/02 01:37:19;;;;;;;2.65;2.45;;;;;;;15.35;43.12;101162.88;679130;29;1146;-89
2022/09/02 01:37:41;;;;;;;2.58;2.38;;;;;;;15.33;43.10;101161.97;680358;29;1242;-89
2022/09/02 01:38:03;;;;;;;2.83;2.25;;;;;;;15.32;43.04;101155.81;681114;29;1936;-89
2022/09/02 01:38:24;;;;;;;2.55;2.05;;;;;;;15.36;42.93;101162.00;675081;29;1257;-89
2022/09/02 01:38:45;;;;;;;2.13;1.95;;;;;;;15.31;43.12;101154.06;680540;29;1379;-89
2022/09/02 01:39:08;;;;;;;2.38;2.10;;;;;;;15.34;42.90;101158.47;677569;29;1998;-89
2022/09/02 01:39:29;;;;;;;3.20;2.10;;;;;;;15.32;43.06;101158.44;680413;28;1314;-89
2022/09/02 01:39:51;;;;;;;3.78;2.10;;;;;;;15.28;43.12;101154.03;685785;28;1251;-89
2022/09/02 01:40:15;;;;;;;5.18;2.10;;;;;;;15.23;42.91;101147.81;681009;29;1759;-89
2022/09/02 01:40:37;;;;;;;7.25;2.22;;;;;;;15.25;43.21;101155.72;677926;29;1265;-89
2022/09/02 01:40:58;;;;;;;6.78;2.40;;;;;;;15.26;43.12;101153.13;680437;29;1317;-89
2022/09/02 01:41:19;;;;;;;3.95;2.30;;;;;;;15.24;43.42;101152.19;675243;29;1281;-89
2022/09/02 01:41:40;;;;;;;4.20;2.40;;;;;;;15.22;43.40;101151.31;680654;29;1306;-89
2022/09/02 01:42:01;;;;;;;3.60;2.47;;;;;;;15.25;43.66;101158.34;683570;28;1921;-90
2022/09/02 01:42:22;;;;;;;2.50;2.30;;;;;;;15.29;43.38;101161.06;680537;29;1174;-89
2022/09/02 01:42:48;;;;;;;2.47;2.28;;;;;;;15.24;43.44;101156.59;680399;29;1358;-89
2022/09/02 01:43:16;;;;;;;2.35;2.15;;;;;;;15.21;43.22;101153.06;683085;28;1205;-89
2022/09/02 01:43:39;;;;;;;2.88;2.20;;;;;;;15.20;43.42;101151.25;683038;28;1371;-89
2022/09/02 01:44:01;;;;;;;2.60;2.10;;;;;;;15.20;43.38;101151.25;675202;29;1171;-89
2022/09/02 01:44:25;;;;;;;2.30;2.20;;;;;;;15.21;43.15;101152.16;680462;29;1188;-89
2022/09/02 01:44:47;;;;;;;2.50;2.30;;;;;;;15.21;43.26;101157.44;683196;29;1287;-89
2022/09/02 01:45:11;;;;;;;2.50;2.30;;;;;;;15.21;43.26;101152.16;678871;29;1574;-89
2022/09/02 01:45:34;;;;;;;2.47;2.10;;;;;;;15.23;43.30;101157.47;677998;29;1272;-89
2022/09/02 01:45:57;;;;;;;2.83;2.10;;;;;;;15.25;43.42;101156.63;680546;29;1313;-89
2022/09/02 01:46:22;;;;;;;2.20;2.00;;;;;;;15.23;43.26;101160.94;680444;29;1303;-89
2022/09/02 01:46:43;;;;;;;2.10;1.90;;;;;;;15.24;43.34;101161.84;677766;29;1976;-89
2022/09/02 01:47:04;;;;;;;2.20;2.00;;;;;;;15.14;43.06;101147.66;677971;29;1612;-89
2022/09/02 01:47:27;;;;;;;2.13;1.90;;;;;;;15.16;43.33;101143.28;680414;28;1269;-89
2022/09/02 01:47:48;;;;;;;2.20;2.00;;;;;;;15.19;43.44;101153.88;680573;29;1256;-89
2022/09/02 01:48:09;;;;;;;2.40;2.20;;;;;;;15.20;43.24;101155.63;680327;29;1225;-89
2022/09/02 01:48:30;;;;;;;3.28;2.40;;;;;;;15.18;43.29;101152.09;680075;29;1178;-89
2022/09/02 01:48:51;;;;;;;3.90;2.47;;;;;;;15.16;43.39;101144.19;675290;29;1159;-89
2022/09/02 01:49:12;;;;;;;3.90;2.60;;;;;;;15.26;43.22;101158.38;682750;29;1224;-89
2022/09/02 01:49:33;;;;;;;3.53;2.45;;;;;;;15.24;43.34;101153.97;682946;29;1214;-89
2022/09/02 01:49:54;;;;;;;3.33;2.42;;;;;;;15.16;43.36;101138.94;680318;29;1451;-89
2022/09/02 01:50:17;;;;;;;2.65;2.20;;;;;;;15.26;43.24;101154.88;685501;28;1355;-89